Minneapolis, Minnesota
Traffic Map
Current Weather Conditions
Minneapolis, Minnesota
Few Clouds
Few Clouds
27°
Feels Like: 27°
Wind Chill: 27° Ceiling: Unl
Heat Index: 27° Visibility: 10mi
Dew Point: 11° Wind: 18mph
Humidity: 35% Direction: 300° (WNW)
Pressure: 30.01in Gusts: 29mph
Raw Report DataKMSP 312053Z 30016G25KT 10SM FEW075 27/11 A3001 RMK AO2 PK WND 29027/2007 SLP159 T02720106 58015
Traffic Incident Summary
Active as of:
Severity:
Category:
InformationThere was an issue retrieving the traffic information for this location. Please try a different location or try again shortly.
Advertisements
Track Severe Weather on mobile